Rossville, Georgia
Current Conditions -  °F | °C
As of 10:53 PM on Thursday 18 Dec 2014 (Local Time) from KCHA Reporting Station
Broken Clouds Broken Clouds  
Wind Chill: 45°   Ceiling: 4500
Heat Index: 45°   Visibility: 10mi
Dew Point: 36°   Wind: 0mph
Humidity: 71%   Direction: NA
Pressure: 30.19"   Gusts: NA
Location:  34.98°N, 85.29°W
Report Text: KCHA 190353Z 00000KT 10SM BKN045 07/02 A3019 RMK AO2 SLP226 T00720022
Loading
Personal Weather Stations






























Interactive Weather Map New forecast layout! Learn more

10-Day Weather Forecast

Advertisements
Track Severe Weather on mobile